Time,TemperatureF,DewpointF,PressureIn,WindDirection,WindDirectionDegrees,WindSpeedMPH,WindSpeedGustMPH,Humidity,HourlyPrecipIn,Conditions,Clouds,dailyrainin,SoftwareType,DateUTC
2013-07-06 00:01:00,76.2,73.7,30.11,SE,128,0.0,30.0,92,0.00,,---,0.00,VWS V12.08,2013-07-06 04:01:00,
2013-07-06 00:02:00,76.2,73.7,30.11,SE,128,0.0,30.0,92,0.00,,---,0.00,VWS V12.08,2013-07-06 04:02:00,
2013-07-06 00:05:00,76.1,73.6,30.11,SE,128,0.0,30.0,92,0.00,,---,0.00,VWS V12.08,2013-07-06 04:05:00,
2013-07-06 00:10:00,76.0,73.2,30.11,SE,128,0.0,30.0,91,0.00,,---,0.00,VWS V12.08,2013-07-06 04:10:00,
2013-07-06 00:15:00,75.8,73.3,30.11,SE,128,0.0,30.0,92,0.00,,---,0.00,VWS V12.08,2013-07-06 04:15:00,
2013-07-06 00:20:00,75.7,73.2,30.10,SE,128,0.0,30.0,92,0.00,,---,0.00,VWS V12.08,2013-07-06 04:20:00,
2013-07-06 00:25:00,75.6,73.1,30.11,SE,128,0.0,30.0,92,0.00,,---,0.00,VWS V12.08,2013-07-06 04:25:00,
2013-07-06 00:30:00,75.4,72.9,30.11,SE,128,0.0,30.0,92,0.00,,---,0.00,VWS V12.08,2013-07-06 04:30:00,
2013-07-06 00:35:00,75.3,72.8,30.10,SE,128,0.0,30.0,92,0.00,,---,0.00,VWS V12.08,2013-07-06 04:35:00,
2013-07-06 00:40:00,75.3,72.8,30.10,SE,128,0.0,30.0,92,0.00,,---,0.00,VWS V12.08,2013-07-06 04:40:00,
2013-07-06 00:45:00,75.2,73.0,30.10,SE,128,0.0,30.0,93,0.00,,---,0.00,VWS V12.08,2013-07-06 04:45:00,
2013-07-06 00:50:00,75.2,73.0,30.10,SE,128,0.0,30.0,93,0.00,,---,0.00,VWS V12.08,2013-07-06 04:50:00,
2013-07-06 00:55:00,75.1,72.9,30.10,SE,128,0.0,30.0,93,0.00,,---,0.00,VWS V12.08,2013-07-06 04:55:00,
2013-07-06 01:00:00,75.2,73.0,30.10,SE,128,0.0,30.0,93,0.00,,---,0.00,VWS V12.08,2013-07-06 05:00:00,
2013-07-06 01:05:00,75.2,73.0,30.10,SE,128,0.0,30.0,93,0.00,,---,0.00,VWS V12.08,2013-07-06 05:05:00,
2013-07-06 01:10:00,75.2,73.0,30.10,SE,128,0.0,30.0,93,0.00,,---,0.00,VWS V12.08,2013-07-06 05:10:00,
2013-07-06 01:15:00,75.1,72.9,30.10,SE,128,0.0,30.0,93,0.00,,---,0.00,VWS V12.08,2013-07-06 05:15:00,
2013-07-06 01:20:00,75.1,72.9,30.10,SE,128,0.0,30.0,93,0.00,,---,0.00,VWS V12.08,2013-07-06 05:20:00,
2013-07-06 01:25:00,75.0,72.8,30.09,SE,128,0.0,30.0,93,0.00,,---,0.00,VWS V12.08,2013-07-06 05:25:00,
2013-07-06 01:30:00,74.9,72.7,30.10,SE,128,0.0,30.0,93,0.00,,---,0.00,VWS V12.08,2013-07-06 05:30:00,
2013-07-06 01:35:00,74.8,72.6,30.10,SE,128,0.0,30.0,93,0.00,,---,0.00,VWS V12.08,2013-07-06 05:35:00,
2013-07-06 01:40:00,74.6,72.4,30.09,SE,128,0.0,30.0,93,0.00,,---,0.00,VWS V12.08,2013-07-06 05:40:00,
2013-07-06 01:45:00,74.5,72.3,30.09,SE,128,0.0,30.0,93,0.00,,---,0.00,VWS V12.08,2013-07-06 05:45:00,
2013-07-06 01:50:00,74.3,72.2,30.09,SE,128,0.0,30.0,93,0.00,,---,0.00,VWS V12.08,2013-07-06 05:50:00,
2013-07-06 01:55:00,74.2,72.4,30.09,SE,128,0.0,30.0,94,0.00,,---,0.00,VWS V12.08,2013-07-06 05:55:00,
2013-07-06 02:00:00,74.1,72.3,30.09,SE,128,0.0,30.0,94,0.00,,---,0.00,VWS V12.08,2013-07-06 06:00:00,
2013-07-06 02:05:00,74.0,72.2,30.09,SE,128,0.0,30.0,94,0.00,,---,0.00,VWS V12.08,2013-07-06 06:05:00,
2013-07-06 02:10:00,74.0,72.2,30.08,SE,128,0.0,30.0,94,0.00,,---,0.00,VWS V12.08,2013-07-06 06:10:00,
2013-07-06 02:15:00,74.0,72.2,30.08,SE,128,0.0,30.0,94,0.00,,---,0.00,VWS V12.08,2013-07-06 06:15:00,
2013-07-06 02:20:00,74.1,72.3,30.08,SE,128,0.0,30.0,94,0.00,,---,0.00,VWS V12.08,2013-07-06 06:20:00,
2013-07-06 02:25:00,74.2,72.7,30.08,SE,128,0.0,30.0,95,0.00,,---,0.00,VWS V12.08,2013-07-06 06:25:00,
2013-07-06 02:30:00,74.3,72.8,30.08,SE,128,0.0,30.0,95,0.00,,---,0.00,VWS V12.08,2013-07-06 06:30:00,
2013-07-06 02:35:00,74.3,72.8,30.08,SE,128,0.0,30.0,95,0.00,,---,0.00,VWS V12.08,2013-07-06 06:35:00,
2013-07-06 02:40:00,74.1,72.3,30.08,SE,128,0.0,30.0,94,0.00,,---,0.00,VWS V12.08,2013-07-06 06:40:00,
2013-07-06 02:45:00,73.9,72.1,30.08,SE,128,0.0,30.0,94,0.00,,---,0.00,VWS V12.08,2013-07-06 06:45:00,
2013-07-06 02:50:00,73.8,72.3,30.07,SE,128,0.0,30.0,95,0.00,,---,0.00,VWS V12.08,2013-07-06 06:50:00,
2013-07-06 02:55:00,73.7,71.9,30.07,SE,128,0.0,30.0,94,0.00,,---,0.00,VWS V12.08,2013-07-06 06:55:00,
2013-07-06 03:00:00,73.4,71.6,30.07,SE,128,0.0,30.0,94,0.00,,---,0.00,VWS V12.08,2013-07-06 07:00:00,
2013-07-06 03:05:00,73.4,71.6,30.07,SE,128,0.0,30.0,94,0.00,,---,0.00,VWS V12.08,2013-07-06 07:05:00,
2013-07-06 03:10:00,73.0,71.2,30.07,SE,128,0.0,30.0,94,0.00,,---,0.00,VWS V12.08,2013-07-06 07:10:00,
2013-07-06 03:15:00,72.8,71.0,30.07,SE,128,0.0,30.0,94,0.00,,---,0.00,VWS V12.08,2013-07-06 07:15:00,
2013-07-06 03:20:00,72.7,70.9,30.07,SE,128,0.0,30.0,94,0.00,,---,0.00,VWS V12.08,2013-07-06 07:20:00,
2013-07-06 03:25:00,72.5,70.7,30.07,SE,128,0.0,30.0,94,0.00,,---,0.00,VWS V12.08,2013-07-06 07:25:00,
2013-07-06 03:30:00,72.4,70.9,30.07,SE,128,0.0,30.0,95,0.00,,---,0.00,VWS V12.08,2013-07-06 07:30:00,
2013-07-06 03:35:00,72.3,70.8,30.07,SE,128,0.0,30.0,95,0.00,,---,0.00,VWS V12.08,2013-07-06 07:35:00,
2013-07-06 03:40:00,72.3,70.8,30.07,SE,128,0.0,30.0,95,0.00,,---,0.00,VWS V12.08,2013-07-06 07:40:00,
2013-07-06 03:45:00,72.2,70.7,30.07,SE,128,0.0,30.0,95,0.00,,---,0.00,VWS V12.08,2013-07-06 07:45:00,
2013-07-06 03:50:00,72.2,70.7,30.07,SE,128,0.0,30.0,95,0.00,,---,0.00,VWS V12.08,2013-07-06 07:50:00,
2013-07-06 03:55:00,72.1,70.6,30.07,SE,128,0.0,30.0,95,0.00,,---,0.00,VWS V12.08,2013-07-06 07:55:00,
2013-07-06 03:57:00,72.1,70.6,30.07,SE,128,0.0,30.0,95,0.00,,---,0.00,VWS V12.08,2013-07-06 07:57:00,
2013-07-06 04:02:00,72.2,70.7,30.07,SE,128,0.0,30.0,95,0.00,,---,0.00,VWS V12.08,2013-07-06 08:02:00,
2013-07-06 04:07:00,72.2,70.7,30.07,SE,128,0.0,30.0,95,0.00,,---,0.00,VWS V12.08,2013-07-06 08:07:00,
2013-07-06 04:12:00,72.2,70.7,30.07,SE,128,0.0,30.0,95,0.00,,---,0.00,VWS V12.08,2013-07-06 08:12:00,
2013-07-06 04:17:00,72.1,70.6,30.07,SE,128,0.0,30.0,95,0.00,,---,0.00,VWS V12.08,2013-07-06 08:17:00,
2013-07-06 04:22:00,72.0,70.5,30.07,SE,128,0.0,30.0,95,0.00,,---,0.00,VWS V12.08,2013-07-06 08:22:00,
2013-07-06 04:27:00,71.9,70.4,30.07,SE,128,0.0,30.0,95,0.00,,---,0.00,VWS V12.08,2013-07-06 08:27:00,
2013-07-06 04:32:00,71.8,70.3,30.07,SE,128,0.0,30.0,95,0.00,,---,0.00,VWS V12.08,2013-07-06 08:32:00,
2013-07-06 04:37:00,71.7,70.2,30.07,SE,128,0.0,30.0,95,0.00,,---,0.00,VWS V12.08,2013-07-06 08:37:00,
2013-07-06 04:42:00,71.6,70.1,30.07,SE,128,0.0,30.0,95,0.00,,---,0.00,VWS V12.08,2013-07-06 08:42:00,
2013-07-06 04:47:00,71.6,70.1,30.07,SE,128,0.0,30.0,95,0.00,,---,0.00,VWS V12.08,2013-07-06 08:47:00,
2013-07-06 04:52:00,71.6,70.1,30.07,SE,128,0.0,30.0,95,0.00,,---,0.00,VWS V12.08,2013-07-06 08:52:00,
2013-07-06 04:57:00,71.5,70.0,30.07,SE,128,0.0,30.0,95,0.00,,---,0.00,VWS V12.08,2013-07-06 08:57:00,
2013-07-06 05:02:00,71.4,69.9,30.07,SE,128,0.0,30.0,95,0.00,,---,0.00,VWS V12.08,2013-07-06 09:02:00,
2013-07-06 05:07:00,71.2,69.7,30.07,SE,128,0.0,30.0,95,0.00,,---,0.00,VWS V12.08,2013-07-06 09:07:00,
2013-07-06 05:12:00,71.0,69.5,30.06,SE,128,0.0,30.0,95,0.00,,---,0.00,VWS V12.08,2013-07-06 09:12:00,
2013-07-06 05:17:00,71.0,69.5,30.06,SE,128,0.0,30.0,95,0.00,,---,0.00,VWS V12.08,2013-07-06 09:17:00,
2013-07-06 05:22:00,70.9,69.7,30.06,SE,128,0.0,30.0,96,0.00,,---,0.00,VWS V12.08,2013-07-06 09:22:00,
2013-07-06 05:27:00,70.9,69.7,30.06,SE,128,0.0,30.0,96,0.00,,---,0.00,VWS V12.08,2013-07-06 09:27:00,
2013-07-06 05:32:00,70.8,69.3,30.07,SE,128,0.0,30.0,95,0.00,,---,0.00,VWS V12.08,2013-07-06 09:32:00,
2013-07-06 05:37:00,70.8,69.6,30.07,SE,128,0.0,30.0,96,0.00,,---,0.00,VWS V12.08,2013-07-06 09:37:00,
2013-07-06 05:42:00,70.8,69.6,30.07,SE,128,0.0,30.0,96,0.00,,---,0.00,VWS V12.08,2013-07-06 09:42:00,
2013-07-06 05:47:00,70.7,69.5,30.07,SE,128,0.0,30.0,96,0.00,,---,0.00,VWS V12.08,2013-07-06 09:47:00,
2013-07-06 05:52:00,70.7,69.5,30.07,SE,128,0.0,30.0,96,0.00,,---,0.00,VWS V12.08,2013-07-06 09:52:00,
2013-07-06 05:57:00,70.7,69.5,30.07,SE,128,0.0,30.0,96,0.00,,---,0.00,VWS V12.08,2013-07-06 09:57:00,
2013-07-06 06:02:00,70.7,69.5,30.07,SE,128,0.0,30.0,96,0.00,,---,0.00,VWS V12.08,2013-07-06 10:02:00,
2013-07-06 06:07:00,70.6,69.4,30.07,SE,128,0.0,30.0,96,0.00,,---,0.00,VWS V12.08,2013-07-06 10:07:00,
2013-07-06 06:12:00,70.6,69.4,30.07,SE,128,0.0,30.0,96,0.00,,---,0.00,VWS V12.08,2013-07-06 10:12:00,
2013-07-06 06:17:00,70.5,69.3,30.07,SE,128,0.0,30.0,96,0.00,,---,0.00,VWS V12.08,2013-07-06 10:17:00,
2013-07-06 06:22:00,70.6,69.4,30.07,SE,128,0.0,30.0,96,0.00,,---,0.00,VWS V12.08,2013-07-06 10:22:00,
2013-07-06 06:27:00,70.5,69.3,30.07,SE,128,0.0,30.0,96,0.00,,---,0.00,VWS V12.08,2013-07-06 10:27:00,
2013-07-06 06:32:00,70.5,69.3,30.07,SE,128,0.0,30.0,96,0.00,,---,0.00,VWS V12.08,2013-07-06 10:32:00,
2013-07-06 06:37:00,70.5,69.3,30.07,SE,128,0.0,30.0,96,0.00,,---,0.00,VWS V12.08,2013-07-06 10:37:00,
2013-07-06 06:42:00,70.5,69.3,30.07,SE,128,0.0,30.0,96,0.00,,---,0.00,VWS V12.08,2013-07-06 10:42:00,
2013-07-06 06:47:00,70.6,69.4,30.07,SE,128,0.0,30.0,96,0.00,,---,0.00,VWS V12.08,2013-07-06 10:47:00,
2013-07-06 06:52:00,70.9,69.7,30.07,SE,128,2.0,30.0,96,0.00,,---,0.00,VWS V12.08,2013-07-06 10:52:00,
2013-07-06 06:57:00,71.0,69.8,30.07,SE,128,0.0,30.0,96,0.00,,---,0.00,VWS V12.08,2013-07-06 10:57:00,
2013-07-06 07:02:00,71.2,70.3,30.07,SE,128,0.0,30.0,97,0.00,,---,0.00,VWS V12.08,2013-07-06 11:02:00,
2013-07-06 07:07:00,71.4,70.2,30.07,SE,128,0.0,30.0,96,0.00,,---,0.00,VWS V12.08,2013-07-06 11:07:00,
2013-07-06 07:12:00,71.7,70.8,30.07,SE,128,0.0,30.0,97,0.00,,---,0.00,VWS V12.08,2013-07-06 11:12:00,
2013-07-06 07:17:00,72.0,71.1,30.07,SE,128,0.0,30.0,97,0.00,,---,0.00,VWS V12.08,2013-07-06 11:17:00,
2013-07-06 07:22:00,72.4,71.5,30.07,SE,128,0.0,30.0,97,0.00,,---,0.00,VWS V12.08,2013-07-06 11:22:00,
2013-07-06 07:27:00,72.7,71.8,30.07,SE,128,0.0,30.0,97,0.00,,---,0.00,VWS V12.08,2013-07-06 11:27:00,
2013-07-06 07:32:00,73.1,72.2,30.08,SE,128,0.0,30.0,97,0.00,,---,0.00,VWS V12.08,2013-07-06 11:32:00,
2013-07-06 07:37:00,73.3,72.4,30.07,SE,128,0.0,30.0,97,0.00,,---,0.00,VWS V12.08,2013-07-06 11:37:00,
2013-07-06 07:42:00,73.8,72.9,30.08,SE,128,0.0,30.0,97,0.00,,---,0.00,VWS V12.08,2013-07-06 11:42:00,
2013-07-06 07:47:00,74.4,73.8,30.08,SE,128,0.0,30.0,98,0.00,,---,0.00,VWS V12.08,2013-07-06 11:47:00,
2013-07-06 07:52:00,74.9,74.0,30.08,SE,128,0.0,30.0,97,0.00,,---,0.00,VWS V12.08,2013-07-06 11:52:00,
2013-07-06 07:57:00,75.5,74.6,30.08,SE,128,4.0,30.0,97,0.00,,---,0.00,VWS V12.08,2013-07-06 11:57:00,
2013-07-06 08:02:00,75.8,74.9,30.08,SE,128,2.0,30.0,97,0.00,,---,0.00,VWS V12.08,2013-07-06 12:02:00,
2013-07-06 08:07:00,76.2,75.3,30.08,SE,128,0.0,30.0,97,0.00,,---,0.00,VWS V12.08,2013-07-06 12:07:00,
2013-07-06 08:12:00,76.6,75.7,30.08,SE,128,2.0,30.0,97,0.00,,---,0.00,VWS V12.08,2013-07-06 12:12:00,
2013-07-06 08:17:00,77.0,76.1,30.09,SE,128,4.0,30.0,97,0.00,,---,0.00,VWS V12.08,2013-07-06 12:17:00,
2013-07-06 08:22:00,77.5,76.3,30.08,ESE,118,7.0,30.0,96,0.00,,---,0.00,VWS V12.08,2013-07-06 12:22:00,
2013-07-06 08:27:00,77.8,76.3,30.09,SE,131,4.0,30.0,95,0.00,,---,0.00,VWS V12.08,2013-07-06 12:27:00,
2013-07-06 08:32:00,78.3,76.4,30.09,SE,134,6.0,30.0,94,0.00,,---,0.00,VWS V12.08,2013-07-06 12:32:00,
2013-07-06 08:37:00,78.6,76.4,30.09,SE,143,9.0,30.0,93,0.00,,---,0.00,VWS V12.08,2013-07-06 12:37:00,
2013-07-06 08:42:00,78.9,76.4,30.09,SE,142,1.0,30.0,92,0.00,,---,0.00,VWS V12.08,2013-07-06 12:42:00,
2013-07-06 08:47:00,79.4,76.9,30.09,SE,128,6.0,30.0,92,0.00,,---,0.00,VWS V12.08,2013-07-06 12:47:00,
2013-07-06 08:52:00,79.9,77.0,30.10,SE,130,4.0,30.0,91,0.00,,---,0.00,VWS V12.08,2013-07-06 12:52:00,
2013-07-06 08:57:00,80.3,77.1,30.10,SSE,148,1.0,30.0,90,0.00,,---,0.00,VWS V12.08,2013-07-06 12:57:00,
2013-07-06 09:02:00,80.8,77.6,30.10,SE,145,4.0,30.0,90,0.00,,---,0.00,VWS V12.08,2013-07-06 13:02:00,
2013-07-06 09:07:00,81.2,77.3,30.09,SSE,158,4.0,30.0,88,0.00,,---,0.00,VWS V12.08,2013-07-06 13:07:00,
2013-07-06 09:12:00,81.4,77.5,30.10,SSE,148,1.0,30.0,88,0.00,,---,0.00,VWS V12.08,2013-07-06 13:12:00,
2013-07-06 09:17:00,81.6,77.4,30.10,SE,133,5.0,30.0,87,0.00,,---,0.00,VWS V12.08,2013-07-06 13:17:00,
2013-07-06 09:22:00,81.9,77.7,30.10,SE,129,7.0,30.0,87,0.00,,---,0.00,VWS V12.08,2013-07-06 13:22:00,
2013-07-06 09:27:00,81.9,76.9,30.10,SE,128,11.0,30.0,85,0.00,,---,0.00,VWS V12.08,2013-07-06 13:27:00,
2013-07-06 09:32:00,81.6,76.7,30.10,ESE,119,9.0,30.0,85,0.00,,---,0.00,VWS V12.08,2013-07-06 13:32:00,
2013-07-06 09:37:00,82.1,77.2,30.10,SSE,156,5.0,30.0,85,0.00,,---,0.00,VWS V12.08,2013-07-06 13:37:00,
2013-07-06 09:42:00,82.5,77.2,30.10,ESE,120,8.0,30.0,84,0.00,,---,0.00,VWS V12.08,2013-07-06 13:42:00,
2013-07-06 09:47:00,83.3,78.0,30.10,SE,140,5.0,30.0,84,0.00,,---,0.00,VWS V12.08,2013-07-06 13:47:00,
2013-07-06 09:52:00,84.0,78.3,30.10,SE,134,4.0,30.0,83,0.00,,---,0.00,VWS V12.08,2013-07-06 13:52:00,
2013-07-06 09:57:00,84.1,76.9,30.10,ESE,113,11.0,30.0,79,0.00,,---,0.00,VWS V12.08,2013-07-06 13:57:00,
2013-07-06 10:02:00,84.3,77.1,30.10,SE,141,7.0,30.0,79,0.00,,---,0.00,VWS V12.08,2013-07-06 14:02:00,
2013-07-06 10:07:00,84.9,77.7,30.10,SE,125,13.0,30.0,79,0.00,,---,0.00,VWS V12.08,2013-07-06 14:07:00,
2013-07-06 10:12:00,85.0,77.0,30.10,SE,126,7.0,30.0,77,0.00,,---,0.00,VWS V12.08,2013-07-06 14:12:00,
2013-07-06 10:17:00,84.9,76.5,30.10,ESE,121,8.0,30.0,76,0.00,,---,0.00,VWS V12.08,2013-07-06 14:17:00,
2013-07-06 10:22:00,85.2,76.8,30.10,ESE,122,7.0,30.0,76,0.00,,---,0.00,VWS V12.08,2013-07-06 14:22:00,
2013-07-06 10:27:00,85.6,77.2,30.10,SE,136,12.0,30.0,76,0.00,,---,0.00,VWS V12.08,2013-07-06 14:27:00,
2013-07-06 10:32:00,85.6,76.4,30.10,SE,134,13.0,30.0,74,0.00,,---,0.00,VWS V12.08,2013-07-06 14:32:00,
2013-07-06 10:37:00,85.7,76.9,30.10,SE,124,7.0,30.0,75,0.00,,---,0.00,VWS V12.08,2013-07-06 14:37:00,
2013-07-06 10:42:00,85.7,76.5,30.10,SE,138,9.0,30.0,74,0.00,,---,0.00,VWS V12.08,2013-07-06 14:42:00,
2013-07-06 10:47:00,85.0,75.8,30.10,SE,128,9.0,30.0,74,0.00,,---,0.00,VWS V12.08,2013-07-06 14:47:00,
2013-07-06 10:52:00,84.6,75.8,30.10,SE,135,6.0,30.0,75,0.00,,---,0.00,VWS V12.08,2013-07-06 14:52:00,
2013-07-06 10:57:00,85.0,76.6,30.10,SE,136,11.0,30.0,76,0.00,,---,0.00,VWS V12.08,2013-07-06 14:57:00,
2013-07-06 11:02:00,85.3,76.5,30.10,SE,133,8.0,30.0,75,0.00,,---,0.00,VWS V12.08,2013-07-06 15:02:00,
2013-07-06 11:07:00,86.2,77.3,30.10,ESE,115,2.0,30.0,75,0.00,,---,0.00,VWS V12.08,2013-07-06 15:07:00,
2013-07-06 11:12:00,86.3,76.6,30.11,SE,128,6.0,30.0,73,0.00,,---,0.00,VWS V12.08,2013-07-06 15:12:00,
2013-07-06 11:17:00,86.0,76.8,30.10,SSE,152,7.0,30.0,74,0.00,,---,0.00,VWS V12.08,2013-07-06 15:17:00,
2013-07-06 11:22:00,86.5,76.8,30.10,SSE,148,6.0,30.0,73,0.00,,---,0.00,VWS V12.08,2013-07-06 15:22:00,
2013-07-06 11:27:00,86.8,76.7,30.10,ESE,123,4.0,30.0,72,0.00,,---,0.00,VWS V12.08,2013-07-06 15:27:00,
2013-07-06 11:32:00,87.5,77.8,30.10,SE,135,9.0,30.0,73,0.00,,---,0.00,VWS V12.08,2013-07-06 15:32:00,
2013-07-06 11:37:00,88.1,77.1,30.10,SE,135,10.0,30.0,70,0.00,,---,0.00,VWS V12.08,2013-07-06 15:37:00,
2013-07-06 11:42:00,87.8,77.2,30.11,SE,128,9.0,30.0,71,0.00,,---,0.00,VWS V12.08,2013-07-06 15:42:00,
2013-07-06 11:47:00,87.8,77.2,30.11,SE,130,11.0,30.0,71,0.00,,---,0.00,VWS V12.08,2013-07-06 15:47:00,
2013-07-06 11:52:00,88.1,76.7,30.11,SSE,158,6.0,30.0,69,0.00,,---,0.00,VWS V12.08,2013-07-06 15:52:00,
2013-07-06 11:57:00,88.1,77.1,30.11,SE,134,4.0,30.0,70,0.00,,---,0.00,VWS V12.08,2013-07-06 15:57:00,
2013-07-06 12:03:00,87.4,77.3,30.10,SSE,167,7.0,30.0,72,0.00,,---,0.00,VWS V12.08,2013-07-06 16:03:00,
2013-07-06 12:08:00,87.5,76.9,30.10,SSE,165,7.0,30.0,71,0.00,,---,0.00,VWS V12.08,2013-07-06 16:08:00,
2013-07-06 12:13:00,87.7,77.1,30.10,SE,139,12.0,30.0,71,0.00,,---,0.00,VWS V12.08,2013-07-06 16:13:00,
2013-07-06 12:18:00,88.1,77.1,30.10,SE,141,10.0,30.0,70,0.00,,---,0.00,VWS V12.08,2013-07-06 16:18:00,
2013-07-06 12:24:00,88.1,76.2,30.10,SE,126,11.0,30.0,68,0.00,,---,0.00,VWS V12.08,2013-07-06 16:24:00,
2013-07-06 12:29:00,87.2,75.8,30.10,SE,131,7.0,30.0,69,0.00,,---,0.00,VWS V12.08,2013-07-06 16:29:00,
2013-07-06 12:35:00,87.2,77.1,30.09,ESE,112,5.0,30.0,72,0.00,,---,0.00,VWS V12.08,2013-07-06 16:35:00,
2013-07-06 12:40:00,87.9,76.9,30.09,ESE,119,5.0,30.0,70,0.00,,---,0.00,VWS V12.08,2013-07-06 16:40:00,
2013-07-06 12:45:00,88.4,76.9,30.09,ESE,109,5.0,30.0,69,0.00,,---,0.00,VWS V12.08,2013-07-06 16:45:00,
2013-07-06 12:50:00,88.7,77.2,30.09,SE,133,11.0,30.0,69,0.00,,---,0.00,VWS V12.08,2013-07-06 16:50:00,
2013-07-06 12:56:00,89.2,76.4,30.09,SE,133,11.0,30.0,66,0.00,,---,0.00,VWS V12.08,2013-07-06 16:56:00,
2013-07-06 13:01:00,89.5,75.2,30.08,ESE,108,7.0,30.0,63,0.00,,---,0.00,VWS V12.08,2013-07-06 17:01:00,
2013-07-06 13:06:00,89.9,76.1,30.08,ESE,119,8.0,30.0,64,0.00,,---,0.00,VWS V12.08,2013-07-06 17:06:00,
2013-07-06 13:11:00,90.0,76.7,30.08,ESE,117,9.0,30.0,65,0.00,,---,0.00,VWS V12.08,2013-07-06 17:11:00,
2013-07-06 13:16:00,90.4,77.0,30.08,SE,134,9.0,30.0,65,0.00,,---,0.00,VWS V12.08,2013-07-06 17:16:00,
2013-07-06 13:22:00,90.4,76.1,30.08,South,169,13.0,30.0,63,0.00,,---,0.00,VWS V12.08,2013-07-06 17:22:00,
2013-07-06 13:27:00,90.1,76.3,30.08,SE,126,9.0,30.0,64,0.00,,---,0.00,VWS V12.08,2013-07-06 17:27:00,
2013-07-06 13:32:00,90.3,76.5,30.08,SE,130,2.0,30.0,64,0.00,,---,0.00,VWS V12.08,2013-07-06 17:32:00,
2013-07-06 13:37:00,90.1,76.8,30.08,ESE,113,15.0,30.0,65,0.00,,---,0.00,VWS V12.08,2013-07-06 17:37:00,
2013-07-06 13:42:00,90.4,76.1,30.08,ESE,111,12.0,30.0,63,0.00,,---,0.00,VWS V12.08,2013-07-06 17:42:00,
2013-07-06 13:47:00,90.6,75.8,30.07,ESE,108,11.0,30.0,62,0.00,,---,0.00,VWS V12.08,2013-07-06 17:47:00,
2013-07-06 13:52:00,89.9,76.1,30.07,SE,126,12.0,30.0,64,0.00,,---,0.00,VWS V12.08,2013-07-06 17:52:00,
2013-07-06 13:58:00,90.1,76.3,30.07,ESE,122,11.0,30.0,64,0.00,,---,0.00,VWS V12.08,2013-07-06 17:58:00,
2013-07-06 14:03:00,90.7,76.4,30.07,SE,144,14.0,30.0,63,0.00,,---,0.00,VWS V12.08,2013-07-06 18:03:00,
2013-07-06 14:09:00,90.7,76.4,30.07,ESE,111,6.0,30.0,63,0.00,,---,0.00,VWS V12.08,2013-07-06 18:09:00,
2013-07-06 14:14:00,91.0,76.2,30.07,SE,135,8.0,30.0,62,0.00,,---,0.00,VWS V12.08,2013-07-06 18:14:00,
2013-07-06 14:20:00,90.9,75.6,30.07,ESE,116,7.0,30.0,61,0.00,,---,0.00,VWS V12.08,2013-07-06 18:20:00,
2013-07-06 14:26:00,91.0,74.2,30.07,SE,134,15.0,30.0,58,0.00,,---,0.00,VWS V12.08,2013-07-06 18:26:00,
2013-07-06 14:31:00,91.3,74.5,30.06,SE,139,8.0,30.0,58,0.00,,---,0.00,VWS V12.08,2013-07-06 18:31:00,
2013-07-06 14:37:00,91.5,75.7,30.06,ESE,119,14.0,30.0,60,0.00,,---,0.00,VWS V12.08,2013-07-06 18:37:00,
2013-07-06 14:42:00,91.6,74.7,30.06,ESE,111,8.0,30.0,58,0.00,,---,0.00,VWS V12.08,2013-07-06 18:42:00,
2013-07-06 14:47:00,91.7,76.3,30.06,SSE,155,10.0,30.0,61,0.00,,---,0.00,VWS V12.08,2013-07-06 18:47:00,
2013-07-06 14:53:00,91.4,75.6,30.06,SE,134,12.0,30.0,60,0.00,,---,0.00,VWS V12.08,2013-07-06 18:53:00,
2013-07-06 14:59:00,91.6,75.8,30.06,ESE,121,15.0,30.0,60,0.00,,---,0.00,VWS V12.08,2013-07-06 18:59:00,
2013-07-06 15:04:00,91.6,76.2,30.06,ESE,111,11.0,30.0,61,0.00,,---,0.00,VWS V12.08,2013-07-06 19:04:00,
2013-07-06 15:09:00,91.5,76.7,30.05,South,182,8.0,30.0,62,0.00,,---,0.00,VWS V12.08,2013-07-06 19:09:00,
2013-07-06 15:14:00,91.6,76.2,30.05,SSE,149,14.0,30.0,61,0.00,,---,0.00,VWS V12.08,2013-07-06 19:14:00,
2013-07-06 15:19:00,91.3,75.5,30.05,SSE,148,12.0,30.0,60,0.00,,---,0.00,VWS V12.08,2013-07-06 19:19:00,
2013-07-06 15:25:00,91.2,76.4,30.05,SE,128,9.0,30.0,62,0.00,,---,0.00,VWS V12.08,2013-07-06 19:25:00,
2013-07-06 15:30:00,91.1,75.8,30.05,ESE,121,11.0,30.0,61,0.00,,---,0.00,VWS V12.08,2013-07-06 19:30:00,
2013-07-06 15:35:00,91.2,75.9,30.05,ESE,108,16.0,30.0,61,0.00,,---,0.00,VWS V12.08,2013-07-06 19:35:00,
2013-07-06 15:41:00,91.2,75.4,30.05,ESE,111,8.0,30.0,60,0.00,,---,0.00,VWS V12.08,2013-07-06 19:41:00,
2013-07-06 15:46:00,91.9,75.0,30.05,SE,136,8.0,30.0,58,0.00,,---,0.00,VWS V12.08,2013-07-06 19:46:00,
2013-07-06 15:51:00,91.1,75.3,30.05,SE,146,11.0,30.0,60,0.00,,---,0.00,VWS V12.08,2013-07-06 19:51:00,
2013-07-06 15:56:00,89.9,76.1,30.05,ESE,112,12.0,30.0,64,0.00,,---,0.00,VWS V12.08,2013-07-06 19:56:00,
2013-07-06 16:01:00,90.1,75.8,30.05,SE,126,15.0,30.0,63,0.00,,---,0.00,VWS V12.08,2013-07-06 20:01:00,
2013-07-06 16:07:00,89.5,76.2,30.05,ESE,111,14.0,30.0,65,0.00,,---,0.00,VWS V12.08,2013-07-06 20:07:00,
2013-07-06 16:12:00,89.9,75.6,30.05,ESE,114,13.0,30.0,63,0.00,,---,0.00,VWS V12.08,2013-07-06 20:12:00,
2013-07-06 16:17:00,90.3,76.0,30.05,SSE,164,8.0,30.0,63,0.00,,---,0.00,VWS V12.08,2013-07-06 20:17:00,
2013-07-06 16:23:00,89.8,75.1,30.05,SE,126,7.0,30.0,62,0.00,,---,0.00,VWS V12.08,2013-07-06 20:23:00,
2013-07-06 16:28:00,89.5,75.7,30.04,ESE,123,8.0,30.0,64,0.00,,---,0.00,VWS V12.08,2013-07-06 20:28:00,
2013-07-06 16:33:00,90.0,76.2,30.05,SE,146,11.0,30.0,64,0.00,,---,0.00,VWS V12.08,2013-07-06 20:33:00,
2013-07-06 16:38:00,90.0,74.8,30.05,SE,146,10.0,30.0,61,0.00,,---,0.00,VWS V12.08,2013-07-06 20:38:00,
2013-07-06 16:43:00,89.8,75.5,30.05,SE,125,11.0,30.0,63,0.00,,---,0.00,VWS V12.08,2013-07-06 20:43:00,
2013-07-06 16:48:00,90.2,75.4,30.04,SSE,153,9.0,30.0,62,0.00,,---,0.00,VWS V12.08,2013-07-06 20:48:00,
2013-07-06 16:54:00,90.0,75.2,30.04,SE,136,10.0,30.0,62,0.00,,---,0.00,VWS V12.08,2013-07-06 20:54:00,
2013-07-06 16:59:00,89.6,75.3,30.04,ESE,109,9.0,30.0,63,0.00,,---,0.00,VWS V12.08,2013-07-06 20:59:00,
2013-07-06 17:05:00,89.8,76.5,30.04,SE,130,5.0,30.0,65,0.00,,---,0.00,VWS V12.08,2013-07-06 21:05:00,
2013-07-06 17:10:00,89.7,75.0,30.04,ESE,121,7.0,30.0,62,0.00,,---,0.00,VWS V12.08,2013-07-06 21:10:00,
2013-07-06 17:15:00,89.1,75.3,30.04,SSE,150,11.0,30.0,64,0.00,,---,0.00,VWS V12.08,2013-07-06 21:15:00,
2013-07-06 17:20:00,89.2,75.0,30.04,SSE,148,12.0,30.0,63,0.00,,---,0.00,VWS V12.08,2013-07-06 21:20:00,
2013-07-06 17:25:00,89.7,75.9,30.04,SSE,151,16.0,30.0,64,0.00,,---,0.00,VWS V12.08,2013-07-06 21:25:00,
2013-07-06 17:31:00,88.2,76.3,30.04,SE,131,9.0,30.0,68,0.00,,---,0.00,VWS V12.08,2013-07-06 21:31:00,
2013-07-06 17:36:00,85.4,75.3,30.04,SE,128,5.0,30.0,72,0.00,,---,0.00,VWS V12.08,2013-07-06 21:36:00,
2013-07-06 17:42:00,84.3,75.5,30.04,SSE,148,0.0,30.0,75,0.00,,---,0.00,VWS V12.08,2013-07-06 21:42:00,
2013-07-06 17:47:00,84.1,76.1,30.04,SE,146,5.0,30.0,77,0.00,,---,0.00,VWS V12.08,2013-07-06 21:47:00,
2013-07-06 17:52:00,84.5,76.1,30.04,ESE,117,6.0,30.0,76,0.00,,---,0.00,VWS V12.08,2013-07-06 21:52:00,
2013-07-06 17:57:00,85.4,77.0,30.03,SE,125,7.0,30.0,76,0.00,,---,0.00,VWS V12.08,2013-07-06 21:57:00,
2013-07-06 18:03:00,86.2,76.9,30.03,SE,134,9.0,30.0,74,0.00,,---,0.00,VWS V12.08,2013-07-06 22:03:00,
2013-07-06 18:08:00,86.9,77.2,30.04,SE,128,6.0,30.0,73,0.00,,---,0.00,VWS V12.08,2013-07-06 22:08:00,
2013-07-06 18:13:00,87.0,76.5,30.03,SE,124,9.0,30.0,71,0.00,,---,0.00,VWS V12.08,2013-07-06 22:13:00,
2013-07-06 18:19:00,87.4,76.4,30.04,SE,129,8.0,30.0,70,0.00,,---,0.00,VWS V12.08,2013-07-06 22:19:00,
2013-07-06 18:24:00,87.6,76.2,30.04,SE,129,5.0,30.0,69,0.00,,---,0.00,VWS V12.08,2013-07-06 22:24:00,
2013-07-06 18:29:00,87.7,75.4,30.04,SE,139,13.0,30.0,67,0.00,,---,0.00,VWS V12.08,2013-07-06 22:29:00,
2013-07-06 18:34:00,87.8,75.0,30.04,SSE,158,8.0,30.0,66,0.00,,---,0.00,VWS V12.08,2013-07-06 22:34:00,
2013-07-06 18:39:00,87.8,75.5,30.04,SE,133,12.0,30.0,67,0.00,,---,0.00,VWS V12.08,2013-07-06 22:39:00,
2013-07-06 18:44:00,87.8,75.5,30.04,SSE,159,7.0,30.0,67,0.00,,---,0.00,VWS V12.08,2013-07-06 22:44:00,
2013-07-06 18:50:00,87.8,75.5,30.04,SE,126,8.0,30.0,67,0.00,,---,0.00,VWS V12.08,2013-07-06 22:50:00,
2013-07-06 18:55:00,87.6,75.3,30.04,ESE,121,13.0,30.0,67,0.00,,---,0.00,VWS V12.08,2013-07-06 22:55:00,
2013-07-06 19:01:00,87.3,75.9,30.04,ESE,118,6.0,30.0,69,0.00,,---,0.00,VWS V12.08,2013-07-06 23:01:00,
2013-07-06 19:06:00,87.1,75.7,30.04,ESE,119,7.0,30.0,69,0.00,,---,0.00,VWS V12.08,2013-07-06 23:06:00,
2013-07-06 19:12:00,86.5,75.1,30.04,ESE,117,9.0,30.0,69,0.00,,---,0.00,VWS V12.08,2013-07-06 23:12:00,
2013-07-06 19:18:00,86.1,75.2,30.04,SE,131,14.0,30.0,70,0.00,,---,0.00,VWS V12.08,2013-07-06 23:18:00,
2013-07-06 19:23:00,86.0,75.5,30.04,SE,137,12.0,30.0,71,0.00,,---,0.00,VWS V12.08,2013-07-06 23:23:00,
2013-07-06 19:28:00,85.8,75.7,30.04,ESE,123,11.0,30.0,72,0.00,,---,0.00,VWS V12.08,2013-07-06 23:28:00,
2013-07-06 19:33:00,85.5,75.0,30.04,ESE,122,8.0,30.0,71,0.00,,---,0.00,VWS V12.08,2013-07-06 23:33:00,
2013-07-06 19:39:00,85.1,74.6,30.04,SE,128,9.0,30.0,71,0.00,,---,0.00,VWS V12.08,2013-07-06 23:39:00,
2013-07-06 19:44:00,84.8,74.8,30.04,SE,128,11.0,30.0,72,0.00,,---,0.00,VWS V12.08,2013-07-06 23:44:00,
2013-07-06 19:50:00,84.3,74.7,30.05,SE,128,5.0,30.0,73,0.00,,---,0.00,VWS V12.08,2013-07-06 23:50:00,
2013-07-06 19:56:00,83.8,74.6,30.05,ESE,123,0.0,30.0,74,0.00,,---,0.00,VWS V12.08,2013-07-06 23:56:00,
2013-07-06 20:03:00,83.3,74.6,30.05,SE,125,6.0,30.0,75,0.00,,---,0.00,VWS V12.08,2013-07-07 00:03:00,
2013-07-06 20:08:00,83.1,74.8,30.05,SE,132,9.0,30.0,76,0.00,,---,0.00,VWS V12.08,2013-07-07 00:08:00,
2013-07-06 20:14:00,82.8,74.5,30.05,SE,125,7.0,30.0,76,0.00,,---,0.00,VWS V12.08,2013-07-07 00:14:00,
2013-07-06 20:19:00,82.6,74.3,30.05,SE,127,6.0,30.0,76,0.00,,---,0.00,VWS V12.08,2013-07-07 00:19:00,
2013-07-06 20:24:00,82.3,74.4,30.05,ESE,121,5.0,30.0,77,0.00,,---,0.00,VWS V12.08,2013-07-07 00:24:00,
2013-07-06 20:29:00,82.0,74.1,30.06,ESE,121,0.0,30.0,77,0.00,,---,0.00,VWS V12.08,2013-07-07 00:29:00,
2013-07-06 20:34:00,81.7,74.2,30.06,ESE,123,0.0,30.0,78,0.00,,---,0.00,VWS V12.08,2013-07-07 00:34:00,
2013-07-06 20:40:00,81.4,73.9,30.06,SE,132,4.0,30.0,78,0.00,,---,0.00,VWS V12.08,2013-07-07 00:40:00,
2013-07-06 20:45:00,81.3,74.2,30.06,SE,132,0.0,30.0,79,0.00,,---,0.00,VWS V12.08,2013-07-07 00:45:00,
2013-07-06 20:51:00,81.1,74.0,30.07,SE,131,4.0,30.0,79,0.00,,---,0.00,VWS V12.08,2013-07-07 00:51:00,
2013-07-06 20:56:00,80.9,74.2,30.07,SE,132,0.0,30.0,80,0.00,,---,0.00,VWS V12.08,2013-07-07 00:56:00,
2013-07-06 21:01:00,80.8,74.1,30.07,SE,132,0.0,30.0,80,0.00,,---,0.00,VWS V12.08,2013-07-07 01:01:00,
2013-07-06 21:07:00,80.6,73.9,30.07,SE,132,0.0,30.0,80,0.00,,---,0.00,VWS V12.08,2013-07-07 01:07:00,
2013-07-06 21:12:00,80.4,74.0,30.07,SE,132,0.0,30.0,81,0.00,,---,0.00,VWS V12.08,2013-07-07 01:12:00,
2013-07-06 21:18:00,80.0,74.0,30.07,SE,132,0.0,30.0,82,0.00,,---,0.00,VWS V12.08,2013-07-07 01:18:00,
2013-07-06 21:23:00,79.7,73.7,30.08,SE,132,0.0,30.0,82,0.00,,---,0.00,VWS V12.08,2013-07-07 01:23:00,
2013-07-06 21:28:00,79.4,73.8,30.08,SE,132,0.0,30.0,83,0.00,,---,0.00,VWS V12.08,2013-07-07 01:28:00,
2013-07-06 21:33:00,79.2,73.9,30.08,SE,132,0.0,30.0,84,0.00,,---,0.00,VWS V12.08,2013-07-07 01:33:00,
2013-07-06 21:39:00,79.0,73.8,30.08,SE,132,0.0,30.0,84,0.00,,---,0.00,VWS V12.08,2013-07-07 01:39:00,
2013-07-06 21:44:00,78.9,73.7,30.09,SE,132,0.0,30.0,84,0.00,,---,0.00,VWS V12.08,2013-07-07 01:44:00,
2013-07-06 21:49:00,78.8,73.9,30.08,SE,132,0.0,30.0,85,0.00,,---,0.00,VWS V12.08,2013-07-07 01:49:00,
2013-07-06 21:54:00,78.7,73.8,30.09,SE,132,0.0,30.0,85,0.00,,---,0.00,VWS V12.08,2013-07-07 01:54:00,
2013-07-06 22:00:00,78.5,74.0,30.09,SE,132,0.0,30.0,86,0.00,,---,0.00,VWS V12.08,2013-07-07 02:00:00,
2013-07-06 22:05:00,78.3,73.8,30.09,SE,131,0.0,30.0,86,0.00,,---,0.00,VWS V12.08,2013-07-07 02:05:00,
2013-07-06 22:10:00,78.1,73.6,30.09,SE,131,4.0,30.0,86,0.00,,---,0.00,VWS V12.08,2013-07-07 02:10:00,
2013-07-06 22:15:00,78.0,73.8,30.09,SE,131,0.0,30.0,87,0.00,,---,0.00,VWS V12.08,2013-07-07 02:15:00,
2013-07-06 22:20:00,77.9,73.7,30.10,SE,131,0.0,30.0,87,0.00,,---,0.00,VWS V12.08,2013-07-07 02:20:00,
2013-07-06 22:25:00,77.8,73.6,30.10,SE,131,0.0,30.0,87,0.00,,---,0.00,VWS V12.08,2013-07-07 02:25:00,
2013-07-06 22:30:00,77.6,73.8,30.10,SE,131,0.0,30.0,88,0.00,,---,0.00,VWS V12.08,2013-07-07 02:30:00,
2013-07-06 22:35:00,77.6,73.8,30.10,SE,131,0.0,30.0,88,0.00,,---,0.00,VWS V12.08,2013-07-07 02:35:00,
2013-07-06 22:41:00,77.5,73.7,30.10,SE,131,0.0,30.0,88,0.00,,---,0.00,VWS V12.08,2013-07-07 02:41:00,
2013-07-06 22:46:00,77.5,73.7,30.10,SE,131,0.0,30.0,88,0.00,,---,0.00,VWS V12.08,2013-07-07 02:46:00,
2013-07-06 22:51:00,77.4,73.6,30.10,SE,131,0.0,30.0,88,0.00,,---,0.00,VWS V12.08,2013-07-07 02:51:00,
2013-07-06 22:56:00,77.4,73.6,30.11,SE,131,0.0,30.0,88,0.00,,---,0.00,VWS V12.08,2013-07-07 02:56:00,
2013-07-06 23:02:00,77.3,73.5,30.11,SE,131,0.0,30.0,88,0.00,,---,0.00,VWS V12.08,2013-07-07 03:02:00,
2013-07-06 23:07:00,77.2,73.7,30.11,SE,131,0.0,30.0,89,0.00,,---,0.00,VWS V12.08,2013-07-07 03:07:00,
2013-07-06 23:12:00,77.2,73.7,30.11,SE,131,0.0,30.0,89,0.00,,---,0.00,VWS V12.08,2013-07-07 03:12:00,
2013-07-06 23:18:00,77.1,73.6,30.11,SE,131,0.0,30.0,89,0.00,,---,0.00,VWS V12.08,2013-07-07 03:18:00,
2013-07-06 23:23:00,77.1,73.6,30.11,SE,131,0.0,30.0,89,0.00,,---,0.00,VWS V12.08,2013-07-07 03:23:00,
2013-07-06 23:30:00,77.0,73.8,30.11,SE,131,0.0,30.0,90,0.00,,---,0.00,VWS V12.08,2013-07-07 03:30:00,
2013-07-06 23:35:00,76.9,73.8,30.10,SE,131,0.0,30.0,90,0.00,,---,0.00,VWS V12.08,2013-07-07 03:35:00,
2013-07-06 23:40:00,76.7,73.6,30.10,SE,131,0.0,30.0,90,0.00,,---,0.00,VWS V12.08,2013-07-07 03:40:00,
2013-07-06 23:45:00,76.6,73.8,30.10,SE,131,0.0,30.0,91,0.00,,---,0.00,VWS V12.08,2013-07-07 03:45:00,
2013-07-06 23:50:00,76.4,73.6,30.10,SE,131,0.0,30.0,91,0.00,,---,0.00,VWS V12.08,2013-07-07 03:50:00,
2013-07-06 23:56:00,76.3,73.5,30.10,SE,131,0.0,30.0,91,0.00,,---,0.00,VWS V12.08,2013-07-07 03:56:00,